Time;durP1;ratioP1;P1;durP2;ratioP2;P2;SDS_P1;SDS_P2;PMS_P1;PMS_P2;Temp;Humidity;BMP_temperature;BMP_pressure;BME280_temperature;BME280_humidity;BME280_pressure;Samples;Min_cycle;Max_cycle;Signal;HPM_P1;HPM_P2
2021/08/13 00:01:15;;;;;;;9.58;4.75;;;;;;;17.26;100.00;99587.13;1768224;80;20923;-69
2021/08/13 00:03:43;;;;;;;7.40;4.92;;;;;;;17.25;100.00;99590.25;1760467;80;20955;-68
2021/08/13 00:06:25;;;;;;;12.20;4.72;;;;;;;17.25;100.00;99585.38;1761075;80;21422;-69
2021/08/13 00:08:42;;;;;;;7.92;4.75;;;;;;;17.23;100.00;99587.21;1756732;80;21170;-69
2021/08/13 00:11:11;;;;;;;7.80;4.65;;;;;;;17.20;100.00;99583.30;1766041;80;21406;-69
2021/08/13 00:13:44;;;;;;;8.35;5.33;;;;;;;17.18;100.00;99591.33;1774877;80;20944;-69
2021/08/13 00:16:12;;;;;;;7.62;5.05;;;;;;;17.15;100.00;99586.53;1768211;80;21446;-68
2021/08/13 00:18:40;;;;;;;9.73;5.00;;;;;;;17.13;100.00;99585.70;1770619;80;21034;-69
2021/08/13 00:21:11;;;;;;;7.92;4.50;;;;;;;17.14;100.00;99592.33;1754692;80;21613;-68
2021/08/13 00:23:42;;;;;;;7.10;4.65;;;;;;;17.14;100.00;99591.45;1775547;80;20940;-68
2021/08/13 00:26:09;;;;;;;7.45;4.80;;;;;;;17.12;100.00;99591.48;1775079;80;21027;-68
2021/08/13 00:28:37;;;;;;;8.18;4.90;;;;;;;17.07;100.00;99592.06;1775591;80;21004;-70
2021/08/13 00:31:07;;;;;;;9.18;5.33;;;;;;;17.06;100.00;99590.77;1774697;80;20964;-68
2021/08/13 00:33:35;;;;;;;9.15;4.75;;;;;;;17.01;100.00;99596.19;1775046;80;21361;-68
2021/08/13 00:36:04;;;;;;;10.32;5.47;;;;;;;16.98;100.00;99594.47;1775024;80;21006;-69
2021/08/13 00:38:34;;;;;;;11.18;5.62;;;;;;;16.96;100.00;99603.42;1773956;80;21494;-68
2021/08/13 00:41:03;;;;;;;13.20;6.00;;;;;;;16.93;100.00;99604.37;1766973;80;21098;-68
2021/08/13 00:43:33;;;;;;;19.90;6.22;;;;;;;16.92;100.00;99600.41;1769370;80;21485;-68
2021/08/13 00:46:03;;;;;;;9.98;6.17;;;;;;;16.90;100.00;99603.11;1774327;80;21462;-68
2021/08/13 00:48:49;;;;;;;13.00;6.58;;;;;;;16.92;100.00;99599.95;1771964;79;21434;-69
2021/08/13 00:51:18;;;;;;;10.82;6.35;;;;;;;16.95;100.00;99601.67;1744139;79;20938;-69
2021/08/13 00:53:48;;;;;;;12.47;6.20;;;;;;;16.92;100.00;99600.41;1777520;79;21453;-71
2021/08/13 00:56:19;;;;;;;10.60;6.12;;;;;;;16.90;100.00;99598.24;1773529;79;20832;-72
2021/08/13 00:58:57;;;;;;;10.68;6.10;;;;;;;16.87;100.00;99599.65;1763642;79;21125;-73
2021/08/13 01:01:28;;;;;;;8.45;5.45;;;;;;;16.86;100.00;99602.77;1745521;79;20887;-72
2021/08/13 01:03:57;;;;;;;15.55;6.50;;;;;;;16.85;100.00;99605.47;1771896;79;20931;-72
2021/08/13 01:06:27;;;;;;;8.18;5.37;;;;;;;16.82;100.00;99601.09;1748617;79;20914;-71
2021/08/13 01:08:56;;;;;;;7.65;5.00;;;;;;;16.82;100.00;99602.88;1773478;79;20955;-71
2021/08/13 01:11:54;;;;;;;9.15;5.60;;;;;;;16.83;100.00;99604.63;1780903;79;21430;-71
2021/08/13 01:14:44;;;;;;;9.63;5.03;;;;;;;16.84;100.00;99599.27;1781035;79;20963;-70
2021/08/13 01:17:14;;;;;;;9.60;5.03;;;;;;;16.85;100.00;99602.35;1774412;79;21125;-71
2021/08/13 01:20:21;;;;;;;7.75;4.83;;;;;;;16.83;100.00;99606.84;1773395;79;21555;-71
2021/08/13 01:22:59;;;;;;;7.97;4.90;;;;;;;16.82;100.00;99608.21;1773254;79;20907;-71
2021/08/13 01:25:32;;;;;;;8.08;4.80;;;;;;;16.81;100.00;99614.00;1768432;79;21540;-71
2021/08/13 01:28:27;;;;;;;7.15;4.20;;;;;;;16.81;100.00;99619.33;1749882;80;21453;-71
2021/08/13 01:30:59;;;;;;;9.03;5.05;;;;;;;16.82;100.00;99616.20;1750092;80;21446;-71
2021/08/13 01:33:29;;;;;;;9.00;4.50;;;;;;;16.86;100.00;99611.22;1750550;80;20962;-71
2021/08/13 01:36:01;;;;;;;9.78;4.67;;;;;;;16.89;100.00;99617.81;1751418;80;21458;-70
2021/08/13 01:38:29;;;;;;;7.00;4.87;;;;;;;16.91;100.00;99624.85;1750030;80;21988;-71
2021/08/13 01:41:02;;;;;;;10.00;5.92;;;;;;;16.92;100.00;99623.06;1750978;79;21418;-72
2021/08/13 01:43:36;;;;;;;9.63;5.30;;;;;;;16.92;100.00;99621.73;1750391;80;20971;-71
2021/08/13 01:46:05;;;;;;;7.80;5.65;;;;;;;16.87;100.00;99624.51;1731280;79;21534;-71
2021/08/13 01:48:36;;;;;;;7.97;5.55;;;;;;;16.85;100.00;99625.45;1745243;80;21439;-71
2021/08/13 01:51:06;;;;;;;8.18;5.22;;;;;;;16.81;100.00;99628.65;1686563;81;21909;-70
2021/08/13 01:53:36;;;;;;;8.70;5.33;;;;;;;16.76;100.00;99631.88;1739107;82;20905;-69
2021/08/13 01:56:05;;;;;;;11.78;5.30;;;;;;;16.74;100.00;99632.83;1734981;81;21430;-71
2021/08/13 01:58:37;;;;;;;7.05;5.05;;;;;;;16.72;100.00;99637.31;1740585;81;21455;-61
2021/08/13 02:01:08;;;;;;;10.25;5.35;;;;;;;16.68;100.00;99636.52;1723278;81;20976;-69
2021/08/13 02:03:40;;;;;;;51.70;7.00;;;;;;;16.62;100.00;99638.83;1719094;82;21354;-70
2021/08/13 02:06:07;;;;;;;17.62;5.75;;;;;;;16.60;100.00;99645.10;1719064;82;20976;-70
2021/08/13 02:08:38;;;;;;;10.98;5.45;;;;;;;16.54;100.00;99639.88;1736730;82;21462;-71
2021/08/13 02:11:09;;;;;;;14.20;5.87;;;;;;;16.49;100.00;99638.66;1722412;82;20937;-70
2021/08/13 02:13:40;;;;;;;15.58;5.00;;;;;;;16.45;100.00;99640.09;1731345;82;20928;-71
2021/08/13 02:16:12;;;;;;;7.92;5.30;;;;;;;16.40;100.00;99643.31;1733688;81;21402;-70
2021/08/13 02:18:46;;;;;;;9.77;5.40;;;;;;;16.37;100.00;99638.47;1720990;82;20967;-69
2021/08/13 02:21:14;;;;;;;8.13;4.70;;;;;;;16.38;100.00;99646.88;1699970;81;21528;-70
2021/08/13 02:23:44;;;;;;;9.18;4.92;;;;;;;16.39;100.00;99649.09;1744310;82;21442;-69
2021/08/13 02:26:15;;;;;;;10.23;4.77;;;;;;;16.38;100.00;99651.33;1744158;82;20861;-69
2021/08/13 02:28:46;;;;;;;8.73;4.50;;;;;;;16.39;100.00;99653.08;1742143;81;22002;-68
2021/08/13 02:31:17;;;;;;;7.05;4.95;;;;;;;16.40;100.00;99655.29;1743430;82;21423;-69
2021/08/13 02:33:45;;;;;;;6.30;4.28;;;;;;;16.42;100.00;99658.34;1743989;81;20876;-68
2021/08/13 02:36:16;;;;;;;8.53;4.30;;;;;;;16.44;100.00;99656.97;1743675;81;20951;-68
2021/08/13 02:38:56;;;;;;;8.05;4.72;;;;;;;16.49;100.00;99659.95;1743979;81;21347;-69
2021/08/13 02:41:27;;;;;;;9.60;4.85;;;;;;;16.53;100.00;99664.30;1718955;82;23751;-69
2021/08/13 02:43:58;;;;;;;7.65;5.08;;;;;;;16.55;100.00;99662.94;1719386;82;21015;-68
2021/08/13 02:46:38;;;;;;;6.85;4.50;;;;;;;16.57;100.00;99663.81;1686955;84;21031;-69
2021/08/13 02:49:09;;;;;;;6.40;4.50;;;;;;;16.59;100.00;99668.20;1737446;82;20936;-69
2021/08/13 02:51:39;;;;;;;7.95;4.70;;;;;;;16.60;100.00;99669.08;1753104;80;21070;-69
2021/08/13 02:54:08;;;;;;;7.80;4.70;;;;;;;16.63;100.00;99675.20;1760036;80;21424;-70
2021/08/13 02:56:36;;;;;;;7.10;4.65;;;;;;;16.68;100.00;99676.47;1748223;80;20910;-69
2021/08/13 02:59:09;;;;;;;6.83;4.37;;;;;;;16.70;100.00;99675.98;1775713;80;20892;-69
2021/08/13 03:01:38;;;;;;;6.83;4.20;;;;;;;16.71;100.00;99675.52;1775699;80;20892;-69
2021/08/13 03:04:08;;;;;;;6.97;4.42;;;;;;;16.72;100.00;99676.82;1747024;80;20893;-69
2021/08/13 03:06:39;;;;;;;10.45;5.12;;;;;;;16.73;100.00;99677.70;1738836;82;21403;-69
2021/08/13 03:09:08;;;;;;;10.20;5.37;;;;;;;16.73;100.00;99678.57;1757298;80;20896;-69
2021/08/13 03:11:38;;;;;;;20.25;9.48;;;;;;;16.73;100.00;99681.23;1755916;80;20919;-69
2021/08/13 03:14:07;;;;;;;13.58;6.75;;;;;;;16.74;100.00;99680.33;1763627;80;20955;-69
2021/08/13 03:16:36;;;;;;;9.60;5.92;;;;;;;16.76;100.00;99682.50;1760170;80;21418;-68
2021/08/13 03:19:05;;;;;;;9.83;5.08;;;;;;;16.74;100.00;99682.11;1741163;81;21195;-70
2021/08/13 03:21:35;;;;;;;12.85;5.58;;;;;;;16.70;100.00;99688.42;1760183;80;21433;-69
2021/08/13 03:24:06;;;;;;;14.28;6.92;;;;;;;16.64;100.00;99686.73;1765360;80;20991;-69
2021/08/13 03:26:34;;;;;;;16.80;9.60;;;;;;;16.61;100.00;99684.14;1775654;80;21442;-71
2021/08/13 03:29:11;;;;;;;12.50;9.45;;;;;;;16.55;100.00;99690.45;1775270;80;21498;-67
2021/08/13 03:31:46;;;;;;;18.60;9.13;;;;;;;16.52;100.00;99690.52;1774575;80;21485;-65
2021/08/13 03:34:18;;;;;;;10.20;7.58;;;;;;;16.51;100.00;99690.09;1772044;80;21489;-65
2021/08/13 03:36:48;;;;;;;7.80;6.50;;;;;;;16.55;100.00;99689.57;1775054;80;20927;-63
2021/08/13 03:39:17;;;;;;;9.25;5.30;;;;;;;16.58;100.00;99694.86;1775121;80;20945;-64
2021/08/13 03:41:46;;;;;;;12.55;5.47;;;;;;;16.62;100.00;99696.55;1774672;80;20872;-64
2021/08/13 03:44:16;;;;;;;8.48;5.50;;;;;;;16.65;100.00;99700.05;1775223;80;21182;-63
2021/08/13 03:46:44;;;;;;;7.28;4.55;;;;;;;16.71;100.00;99701.70;1774023;80;20926;-63
2021/08/13 03:49:12;;;;;;;6.22;4.53;;;;;;;16.76;100.00;99699.81;1775059;80;20971;-65
2021/08/13 03:51:42;;;;;;;7.03;4.70;;;;;;;16.84;100.00;99697.86;1768871;80;21478;-64
2021/08/13 03:54:10;;;;;;;10.38;4.70;;;;;;;16.92;100.00;99701.67;1750922;80;20884;-63
2021/08/13 03:56:40;;;;;;;9.10;5.10;;;;;;;16.97;100.00;99705.98;1757509;80;21407;-64
2021/08/13 03:59:08;;;;;;;6.50;4.58;;;;;;;17.04;100.00;99707.20;1768938;80;21418;-65
2021/08/13 04:01:37;;;;;;;9.33;4.50;;;;;;;17.08;100.00;99702.22;1764749;80;20937;-67
2021/08/13 04:04:06;;;;;;;6.72;4.40;;;;;;;17.15;100.00;99706.04;1774894;80;21007;-63
2021/08/13 04:06:35;;;;;;;7.17;4.30;;;;;;;17.20;100.00;99706.80;1775395;80;21399;-63
2021/08/13 04:09:06;;;;;;;7.42;4.85;;;;;;;17.29;100.00;99703.03;1770096;80;21453;-63
2021/08/13 04:11:36;;;;;;;8.35;4.58;;;;;;;17.36;100.00;99704.64;1770147;80;21398;-65
2021/08/13 04:14:06;;;;;;;7.40;4.78;;;;;;;17.43;100.00;99708.91;1775243;80;21485;-62
2021/08/13 04:16:35;;;;;;;8.13;4.62;;;;;;;17.50;100.00;99712.28;1773373;80;21047;-61
2021/08/13 04:19:06;;;;;;;8.53;4.67;;;;;;;17.56;100.00;99705.50;1753901;80;20861;-69
2021/08/13 04:21:37;;;;;;;12.13;4.78;;;;;;;17.63;100.00;99710.63;1774785;80;21510;-69
2021/08/13 04:24:06;;;;;;;6.72;4.55;;;;;;;17.70;100.00;99715.38;1768016;80;21628;-69
2021/08/13 04:26:37;;;;;;;8.33;4.42;;;;;;;17.79;100.00;99711.59;1690852;84;21123;-68
2021/08/13 04:29:07;;;;;;;6.55;4.37;;;;;;;17.86;100.00;99707.84;1702437;83;20932;-69
2021/08/13 04:31:36;;;;;;;7.42;4.45;;;;;;;17.92;100.00;99707.69;1767749;80;20956;-69
2021/08/13 04:34:07;;;;;;;8.15;4.72;;;;;;;17.98;100.00;99714.22;1764604;80;21551;-68
2021/08/13 04:36:42;;;;;;;11.50;5.20;;;;;;;18.04;100.00;99716.72;1775637;79;20959;-68
2021/08/13 04:39:09;;;;;;;9.23;4.72;;;;;;;18.07;100.00;99717.97;1774532;80;21548;-68
2021/08/13 04:41:39;;;;;;;;;;;;;;;18.13;100.00;99715.59;1778314;80;20943;-68
2021/08/13 04:44:14;;;;;;;8.63;4.37;;;;;;;18.19;100.00;99720.30;1775474;80;20097;-69
2021/08/13 04:46:45;;;;;;;8.68;4.55;;;;;;;18.26;100.00;99717.00;1775389;80;21219;-68
2021/08/13 04:49:15;;;;;;;6.03;4.50;;;;;;;18.34;100.00;99718.11;1750599;80;20903;-69
2021/08/13 04:51:43;;;;;;;8.75;4.42;;;;;;;18.39;100.00;99719.73;1786100;79;20939;-68
2021/08/13 04:54:14;;;;;;;12.63;4.80;;;;;;;18.43;100.00;99718.72;1785677;79;20933;-68
2021/08/13 04:56:43;;;;;;;6.72;4.42;;;;;;;18.50;100.00;99721.66;1785863;79;20858;-69
2021/08/13 04:59:14;;;;;;;8.58;4.97;;;;;;;18.55;100.00;99726.41;1779093;79;21052;-69
2021/08/13 05:01:49;;;;;;;11.57;6.03;;;;;;;18.62;100.00;99724.92;1784014;80;21493;-69
2021/08/13 05:04:20;;;;;;;33.78;6.08;;;;;;;18.66;100.00;99727.46;1786009;80;20943;-69
2021/08/13 05:06:50;;;;;;;8.10;4.72;;;;;;;18.71;100.00;99733.55;1781088;79;21434;-69
2021/08/13 05:09:23;;;;;;;8.50;4.45;;;;;;;18.78;100.00;99732.89;1770401;79;20910;-68
2021/08/13 05:11:56;;;;;;;7.72;4.05;;;;;;;18.85;100.00;99729.98;1743916;79;20840;-68
2021/08/13 05:14:25;;;;;;;7.42;4.20;;;;;;;18.96;100.00;99740.39;1770269;79;20875;-69
2021/08/13 05:16:54;;;;;;;6.87;4.20;;;;;;;19.06;100.00;99738.30;1773067;79;20971;-68
2021/08/13 05:19:22;;;;;;;6.55;4.37;;;;;;;19.14;100.00;99739.80;1785694;80;20962;-69
2021/08/13 05:21:50;;;;;;;5.42;4.10;;;;;;;19.23;100.00;99743.98;1770289;80;21471;-69
2021/08/13 05:24:20;;;;;;;6.87;4.70;;;;;;;19.33;100.00;99742.77;1773211;80;21171;-68
2021/08/13 05:26:51;;;;;;;9.63;4.53;;;;;;;19.41;100.00;99742.09;1775357;79;20959;-68
2021/08/13 05:29:21;;;;;;;9.03;4.20;;;;;;;19.49;100.00;99740.03;1781024;80;21443;-69
2021/08/13 05:31:50;;;;;;;9.30;4.17;;;;;;;19.57;100.00;99740.27;1712759;83;21412;-69
2021/08/13 05:34:19;;;;;;;11.48;5.45;;;;;;;19.66;100.00;99738.62;1779983;80;20885;-68
2021/08/13 05:36:47;;;;;;;15.25;7.45;;;;;;;19.74;100.00;99747.27;1781235;80;21154;-67
2021/08/13 05:39:15;;;;;;;11.57;5.90;;;;;;;19.81;100.00;99748.34;1784766;79;20859;-68
2021/08/13 05:41:45;;;;;;;5.97;4.62;;;;;;;19.89;100.00;99747.24;1774016;79;20967;-67
2021/08/13 05:44:16;;;;;;;7.10;4.53;;;;;;;19.98;100.00;99748.27;1749571;80;21026;-68
2021/08/13 05:46:43;;;;;;;7.28;4.90;;;;;;;20.07;100.00;99751.48;1745986;80;20970;-69
2021/08/13 05:49:12;;;;;;;7.08;4.60;;;;;;;20.17;100.00;99748.02;1747082;80;21997;-69
2021/08/13 05:51:40;;;;;;;5.95;4.20;;;;;;;20.27;100.00;99749.91;1768761;80;20876;-69
2021/08/13 05:54:09;;;;;;;8.30;4.78;;;;;;;20.36;100.00;99750.94;1741014;80;21468;-69
2021/08/13 05:56:37;;;;;;;6.60;4.25;;;;;;;20.45;100.00;99750.64;1761969;80;20935;-69
2021/08/13 05:59:06;;;;;;;8.00;4.10;;;;;;;20.54;100.00;99748.95;1760045;80;20911;-69
2021/08/13 06:01:37;;;;;;;9.38;5.12;;;;;;;20.63;100.00;99753.97;1760088;80;22181;-69
2021/08/13 06:04:07;;;;;;;10.75;4.75;;;;;;;20.71;100.00;99751.88;1766800;80;20920;-69
2021/08/13 06:06:34;;;;;;;6.00;4.42;;;;;;;20.83;100.00;99753.71;1774064;80;20967;-68
2021/08/13 06:09:10;;;;;;;13.75;4.17;;;;;;;20.92;100.00;99752.89;1747980;80;21516;-68
2021/08/13 06:11:38;;;;;;;7.40;4.25;;;;;;;21.00;100.00;99752.13;1740053;80;21330;-69
2021/08/13 06:14:10;;;;;;;7.83;4.53;;;;;;;21.12;100.00;99756.13;1769149;80;21117;-69
2021/08/13 06:16:41;;;;;;;9.85;4.80;;;;;;;21.21;100.00;99754.89;1740807;81;20945;-69
2021/08/13 06:19:09;;;;;;;8.63;5.53;;;;;;;21.30;100.00;99755.46;1748265;82;20950;-69
2021/08/13 06:21:38;;;;;;;15.13;9.33;;;;;;;21.41;100.00;99762.20;1742937;82;20954;-69
2021/08/13 06:24:08;;;;;;;17.62;12.28;;;;;;;21.52;100.00;99763.98;1750464;80;20888;-69
2021/08/13 06:26:37;;;;;;;20.57;7.62;;;;;;;21.61;100.00;99766.28;1775225;80;21185;-70
2021/08/13 06:29:05;;;;;;;7.33;5.03;;;;;;;21.70;100.00;99768.58;1775142;80;20913;-68
2021/08/13 06:31:32;;;;;;;9.98;4.55;;;;;;;21.83;100.00;99764.95;1764862;80;20972;-68
2021/08/13 06:34:00;;;;;;;8.43;4.30;;;;;;;21.93;100.00;99764.48;1744800;80;20877;-68
2021/08/13 06:36:28;;;;;;;13.13;9.00;;;;;;;22.05;100.00;99764.47;1744549;80;20920;-68
2021/08/13 06:38:55;;;;;;;8.33;5.53;;;;;;;22.15;100.00;99755.06;1744601;80;21508;-69
2021/08/13 06:41:23;;;;;;;5.15;3.92;;;;;;;22.25;100.00;99749.72;1744755;82;20877;-69
2021/08/13 06:44:01;;;;;;;6.85;4.78;;;;;;;22.34;100.00;99747.09;1721639;81;21597;-68
2021/08/13 06:46:30;;;;;;;4.72;3.90;;;;;;;22.42;100.00;99753.47;1744512;81;20892;-68
2021/08/13 06:49:00;;;;;;;6.15;4.17;;;;;;;22.51;100.00;99753.05;1744363;82;20841;-68
2021/08/13 06:51:27;;;;;;;6.50;4.28;;;;;;;22.60;100.00;99751.28;1744505;82;21147;-68
2021/08/13 06:53:56;;;;;;;5.95;3.37;;;;;;;22.70;100.00;99757.11;1744480;80;20949;-69
2021/08/13 06:56:23;;;;;;;4.58;3.55;;;;;;;22.79;100.00;99758.06;1744619;81;21487;-70
2021/08/13 06:58:51;;;;;;;5.40;3.83;;;;;;;22.88;100.00;99756.33;1744805;80;20924;-69
2021/08/13 07:01:20;;;;;;;10.72;4.10;;;;;;;22.96;100.00;99751.92;1743151;80;21533;-67
2021/08/13 07:03:48;;;;;;;11.70;3.55;;;;;;;23.04;100.00;99757.81;1775163;80;21521;-66
2021/08/13 07:06:16;;;;;;;6.67;3.90;;;;;;;23.13;100.00;99762.28;1775117;80;21078;-69
2021/08/13 07:08:44;;;;;;;30.10;5.37;;;;;;;23.22;100.00;99761.00;1775189;80;20967;-69
2021/08/13 07:11:15;;;;;;;17.15;4.25;;;;;;;23.30;100.00;99759.28;1771137;80;21483;-69
2021/08/13 07:13:42;;;;;;;6.72;4.85;;;;;;;23.39;100.00;99760.19;1775214;80;20983;-69
2021/08/13 07:16:11;;;;;;;5.25;4.20;;;;;;;23.46;100.00;99758.94;1775405;80;21075;-70
2021/08/13 07:18:40;;;;;;;6.12;3.60;;;;;;;23.55;100.00;99758.52;1770420;80;21709;-70
2021/08/13 07:21:15;;;;;;;4.87;3.40;;;;;;;23.64;100.00;99759.40;1767577;81;21526;-69
2021/08/13 07:23:43;;;;;;;5.70;3.22;;;;;;;23.75;100.00;99757.08;1700091;83;20992;-70
2021/08/13 07:26:11;;;;;;;5.12;3.20;;;;;;;23.86;100.00;99760.09;1699335;83;20980;-70
2021/08/13 07:28:40;;;;;;;10.20;3.70;;;;;;;23.96;100.00;99754.23;1768647;80;21139;-69
2021/08/13 07:31:08;;;;;;;5.65;4.03;;;;;;;24.04;100.00;99759.63;1700383;83;20905;-69
2021/08/13 07:33:38;;;;;;;4.35;2.80;;;;;;;24.12;100.00;99761.48;1706682;83;20891;-69
2021/08/13 07:36:07;;;;;;;7.30;3.42;;;;;;;24.21;100.00;99761.95;1775603;80;20939;-70
2021/08/13 07:38:40;;;;;;;4.47;3.15;;;;;;;24.29;100.00;99759.28;1762042;80;20960;-69
2021/08/13 07:41:06;;;;;;;5.40;3.42;;;;;;;24.41;100.00;99759.98;1744558;80;21556;-69
2021/08/13 07:43:37;;;;;;;4.78;3.20;;;;;;;24.48;100.00;99756.00;1744666;80;21511;-70
2021/08/13 07:46:06;;;;;;;4.65;3.15;;;;;;;24.59;100.00;99763.99;1744627;80;20912;-70
2021/08/13 07:48:34;;;;;;;8.90;3.67;;;;;;;24.70;100.00;99762.97;1752129;80;21446;-69
2021/08/13 07:51:02;;;;;;;7.22;3.67;;;;;;;24.79;100.00;99759.77;1707075;83;21102;-70
2021/08/13 07:53:30;;;;;;;6.33;3.12;;;;;;;24.88;100.00;99759.26;1783579;80;21150;-70
2021/08/13 07:56:00;;;;;;;7.37;3.42;;;;;;;24.99;100.00;99758.70;1778617;80;21395;-71
2021/08/13 07:58:28;;;;;;;5.35;3.10;;;;;;;25.06;100.00;99755.57;1767908;80;21470;-70
2021/08/13 08:00:57;;;;;;;6.15;2.98;;;;;;;25.14;100.00;99751.13;1710926;83;20924;-71
2021/08/13 08:03:24;;;;;;;5.28;3.02;;;;;;;25.24;100.00;99756.87;1772836;80;21573;-69
2021/08/13 08:05:53;;;;;;;4.42;3.10;;;;;;;25.36;100.00;99750.30;1780313;80;21010;-70
2021/08/13 08:08:20;;;;;;;3.30;2.70;;;;;;;25.47;100.00;99741.57;1754482;80;21962;-69
2021/08/13 08:10:48;;;;;;;4.08;2.92;;;;;;;25.53;100.00;99746.62;1780729;80;21024;-68
2021/08/13 08:13:17;;;;;;;8.58;3.10;;;;;;;25.57;100.00;99748.21;1782385;80;21407;-68
2021/08/13 08:15:46;;;;;;;5.83;3.10;;;;;;;25.61;100.00;99742.16;1771962;80;20963;-70
2021/08/13 08:18:14;;;;;;;5.72;2.90;;;;;;;25.70;100.00;99745.70;1772103;80;21925;-70
2021/08/13 08:20:44;;;;;;;4.37;2.80;;;;;;;25.79;100.00;99745.16;1772746;80;21468;-69
2021/08/13 08:23:11;;;;;;;9.33;2.92;;;;;;;25.89;100.00;99750.88;1765334;80;21090;-69
2021/08/13 08:25:39;;;;;;;4.42;2.92;;;;;;;25.99;100.00;99745.31;1771653;80;21053;-71
2021/08/13 08:28:06;;;;;;;3.72;2.75;;;;;;;26.10;100.00;99744.70;1773204;80;20929;-71
2021/08/13 08:30:34;;;;;;;4.17;2.60;;;;;;;26.18;100.00;99743.27;1773207;80;21162;-69
2021/08/13 08:33:01;;;;;;;4.28;2.92;;;;;;;26.24;100.00;99737.97;1762671;80;21000;-69
2021/08/13 08:35:30;;;;;;;5.58;2.62;;;;;;;26.32;99.32;99745.13;1769848;80;20989;-69
2021/08/13 08:38:01;;;;;;;5.45;2.50;;;;;;;26.38;97.67;99747.49;1768161;80;21031;-68
2021/08/13 08:40:35;;;;;;;2.85;2.45;;;;;;;26.42;97.27;99739.58;1773080;80;20990;-69
2021/08/13 08:43:05;;;;;;;3.52;2.58;;;;;;;26.44;94.23;99740.35;1752600;82;21447;-69
2021/08/13 08:45:36;;;;;;;4.70;2.45;;;;;;;26.44;93.65;99744.89;1752737;82;20891;-68
2021/08/13 08:48:05;;;;;;;4.95;2.70;;;;;;;26.47;95.43;99741.52;1752617;82;21423;-69
2021/08/13 08:50:35;;;;;;;5.10;3.02;;;;;;;26.53;93.24;99740.30;1747478;82;20900;-69
2021/08/13 08:53:09;;;;;;;3.02;2.45;;;;;;;26.58;92.27;99738.17;1744808;80;20913;-69
2021/08/13 08:55:36;;;;;;;3.17;2.50;;;;;;;26.68;93.36;99740.68;1744708;80;21824;-69
2021/08/13 08:58:04;;;;;;;4.78;2.35;;;;;;;26.77;93.09;99729.27;1734135;82;20885;-68
2021/08/13 09:00:33;;;;;;;3.98;2.22;;;;;;;26.85;90.39;99731.01;1744614;81;20857;-68
2021/08/13 09:03:01;;;;;;;4.20;2.75;;;;;;;26.97;89.17;99736.16;1744659;80;21376;-68
2021/08/13 09:05:30;;;;;;;2.75;2.47;;;;;;;27.06;86.03;99734.23;1744543;81;20984;-68
2021/08/13 09:07:57;;;;;;;5.70;2.45;;;;;;;27.14;83.85;99735.09;1744599;80;21165;-69
2021/08/13 09:10:26;;;;;;;3.33;2.42;;;;;;;27.21;82.62;99735.95;1744617;81;21555;-68
2021/08/13 09:12:55;;;;;;;3.45;2.40;;;;;;;27.30;83.80;99730.41;1744644;81;21479;-68
2021/08/13 09:15:35;;;;;;;3.12;2.40;;;;;;;27.36;84.71;99732.72;1744533;82;20992;-68
2021/08/13 09:18:22;;;;;;;2.75;2.27;;;;;;;27.44;81.03;99733.59;1744808;80;20873;-67
2021/08/13 09:20:58;;;;;;;8.50;2.52;;;;;;;27.50;76.91;99734.06;1744609;81;21535;-68
2021/08/13 09:23:46;;;;;;;3.00;2.22;;;;;;;27.59;77.02;99740.70;1744553;80;20845;-68
2021/08/13 09:26:20;;;;;;;4.62;2.67;;;;;;;27.64;75.97;99730.45;1750640;80;20973;-66
2021/08/13 09:29:06;;;;;;;4.87;2.55;;;;;;;27.74;77.34;99729.34;1775358;80;20932;-68
2021/08/13 09:31:37;;;;;;;2.80;2.50;;;;;;;27.79;74.83;99731.27;1771787;80;20944;-68
2021/08/13 09:34:15;;;;;;;3.83;2.77;;;;;;;27.79;71.73;99733.48;1775178;80;21187;-67
2021/08/13 09:36:54;;;;;;;3.60;3.00;;;;;;;27.82;70.31;99740.05;1775399;80;21036;-69
2021/08/13 09:39:32;;;;;;;3.85;2.45;;;;;;;27.88;67.80;99731.98;1774707;80;20967;-67
2021/08/13 09:42:01;;;;;;;6.42;2.60;;;;;;;27.99;70.72;99734.87;1760935;80;20964;-70
2021/08/13 09:44:44;;;;;;;3.85;2.47;;;;;;;28.07;69.61;99739.28;1728846;82;21011;-68
2021/08/13 09:47:12;;;;;;;5.00;2.70;;;;;;;28.14;67.82;99740.59;1764519;80;21158;-69
2021/08/13 09:49:41;;;;;;;4.12;2.80;;;;;;;28.19;65.67;99737.08;1764838;80;20990;-70
2021/08/13 09:52:20;;;;;;;5.35;2.90;;;;;;;28.29;67.33;99733.27;1774002;80;20899;-70
2021/08/13 09:54:51;;;;;;;3.25;2.60;;;;;;;28.41;69.23;99735.15;1766595;80;20892;-68
2021/08/13 09:57:20;;;;;;;2.87;2.45;;;;;;;28.50;66.03;99734.98;1761817;79;21391;-70
2021/08/13 10:00:06;;;;;;;3.98;2.60;;;;;;;28.57;65.40;99734.94;1774385;79;21157;-71
2021/08/13 10:02:46;;;;;;;3.85;2.50;;;;;;;28.63;65.92;99739.05;1778021;80;20888;-70
2021/08/13 10:05:27;;;;;;;5.08;2.67;;;;;;;28.70;67.26;99731.72;1769953;80;20997;-71
2021/08/13 10:08:01;;;;;;;3.50;2.55;;;;;;;28.80;66.23;99728.72;1776886;80;21451;-70
2021/08/13 10:10:40;;;;;;;10.53;2.53;;;;;;;28.89;64.25;99733.17;1783088;80;20999;-70
2021/08/13 10:13:11;;;;;;;3.47;2.72;;;;;;;28.93;61.79;99727.41;1783561;80;21172;-72
2021/08/13 10:15:56;;;;;;;3.98;2.30;;;;;;;29.01;62.57;99730.92;1772712;80;20983;-69
2021/08/13 10:18:30;;;;;;;4.97;2.70;;;;;;;29.10;61.60;99725.69;1771121;79;20874;-70
2021/08/13 10:21:01;;;;;;;4.20;2.42;;;;;;;29.20;60.27;99728.59;1754319;81;21435;-72
2021/08/13 10:23:32;;;;;;;6.93;2.70;;;;;;;29.26;59.55;99726.78;1769276;79;21616;-70
2021/08/13 10:26:00;;;;;;;4.22;2.50;;;;;;;29.32;58.86;99726.81;1782650;79;21131;-70
2021/08/13 10:28:35;;;;;;;4.97;2.45;;;;;;;29.38;58.45;99723.17;1766502;79;21580;-70
2021/08/13 10:31:05;;;;;;;5.12;2.75;;;;;;;29.49;59.75;99726.97;1782134;80;20966;-70
2021/08/13 10:33:34;;;;;;;4.83;2.65;;;;;;;29.57;57.60;99726.77;1777435;80;21595;-70
2021/08/13 10:36:03;;;;;;;7.67;3.00;;;;;;;29.69;56.26;99722.26;1775800;80;21740;-70
2021/08/13 10:38:31;;;;;;;7.15;2.83;;;;;;;29.81;55.70;99719.13;1698294;81;21156;-70
2021/08/13 10:41:00;;;;;;;5.95;2.62;;;;;;;29.92;56.34;99721.39;1710150;82;20916;-69
2021/08/13 10:43:32;;;;;;;3.55;2.75;;;;;;;30.05;56.41;99724.06;1752771;80;21383;-70
2021/08/13 10:46:02;;;;;;;3.50;2.65;;;;;;;30.13;55.19;99727.06;1679507;84;20905;-70
2021/08/13 10:48:31;;;;;;;7.83;2.58;;;;;;;30.21;54.61;99726.46;1682511;82;21051;-70
2021/08/13 10:51:02;;;;;;;4.90;2.60;;;;;;;30.29;52.96;99721.31;1786228;79;21130;-70
2021/08/13 10:53:40;;;;;;;6.60;2.42;;;;;;;30.37;52.62;99713.41;1785738;79;20907;-70
2021/08/13 10:56:16;;;;;;;4.10;2.75;;;;;;;30.42;52.06;99718.49;1785467;80;21003;-70
2021/08/13 10:58:46;;;;;;;4.37;3.00;;;;;;;30.41;49.51;99716.27;1731176;80;20927;-68
2021/08/13 11:01:21;;;;;;;3.95;2.40;;;;;;;30.36;49.28;99719.35;1776944;79;21475;-70
2021/08/13 11:03:59;;;;;;;4.87;2.80;;;;;;;30.37;48.71;99714.77;1773419;79;21151;-69
2021/08/13 11:06:51;;;;;;;3.25;2.60;;;;;;;30.41;48.56;99715.40;1774409;80;21008;-71
2021/08/13 11:09:36;;;;;;;3.47;2.50;;;;;;;30.44;48.15;99716.02;1747054;80;21582;-67
2021/08/13 11:12:08;;;;;;;5.55;2.50;;;;;;;30.46;47.25;99721.34;1770792;80;21036;-69
2021/08/13 11:14:54;;;;;;;6.65;2.67;;;;;;;30.39;46.44;99710.95;1775318;80;20964;-68
2021/08/13 11:17:42;;;;;;;7.03;2.80;;;;;;;30.35;46.14;99716.75;1764627;80;21058;-68
2021/08/13 11:20:16;;;;;;;4.37;2.75;;;;;;;30.27;46.11;99720.08;1757974;80;21384;-68
2021/08/13 11:22:54;;;;;;;3.37;2.80;;;;;;;30.22;46.04;99724.98;1781074;80;21049;-69
2021/08/13 11:25:24;;;;;;;3.60;2.40;;;;;;;30.28;47.37;99722.30;1764431;80;21006;-69
2021/08/13 11:28:17;;;;;;;3.50;2.60;;;;;;;30.32;47.02;99723.30;1766750;80;21504;-70
2021/08/13 11:30:46;;;;;;;4.57;2.73;;;;;;;30.34;46.68;99717.73;1759849;80;21154;-68
2021/08/13 11:33:36;;;;;;;10.50;2.67;;;;;;;30.38;46.50;99716.51;1783321;80;21622;-67
2021/08/13 11:36:04;;;;;;;4.10;2.60;;;;;;;30.41;47.43;99718.98;1777403;80;20974;-68
2021/08/13 11:38:48;;;;;;;7.15;2.77;;;;;;;30.49;47.21;99711.08;1770605;80;21064;-69
2021/08/13 11:41:28;;;;;;;46.37;4.40;;;;;;;30.58;47.27;99711.70;1781427;80;20880;-68
2021/08/13 11:44:02;;;;;;;3.85;2.50;;;;;;;30.61;46.57;99699.73;1774747;80;21144;-67
2021/08/13 11:46:36;;;;;;;5.10;2.45;;;;;;;30.65;45.84;99709.39;1778581;80;20962;-68